sensor_id;sensor_type;location;lat;lon;timestamp;temperature;humidity
71177;DHT22;58877;51.992;4.504;2023-07-13T00:00:22;18.31;78.70
71177;DHT22;58877;51.992;4.504;2023-07-13T00:02:53;18.22;78.46
71177;DHT22;58877;51.992;4.504;2023-07-13T00:05:25;18.29;78.49
71177;DHT22;58877;51.992;4.504;2023-07-13T00:07:52;18.39;78.26
71177;DHT22;58877;51.992;4.504;2023-07-13T00:10:18;18.48;77.80
71177;DHT22;58877;51.992;4.504;2023-07-13T00:12:44;18.52;77.25
71177;DHT22;58877;51.992;4.504;2023-07-13T00:15:14;18.52;76.52
71177;DHT22;58877;51.992;4.504;2023-07-13T00:17:42;18.42;76.49
71177;DHT22;58877;51.992;4.504;2023-07-13T00:20:11;18.39;76.61
71177;DHT22;58877;51.992;4.504;2023-07-13T00:22:38;18.44;76.56
71177;DHT22;58877;51.992;4.504;2023-07-13T00:25:04;18.56;76.42
71177;DHT22;58877;51.992;4.504;2023-07-13T00:27:32;18.59;76.13
71177;DHT22;58877;51.992;4.504;2023-07-13T00:29:58;18.68;76.00
71177;DHT22;58877;51.992;4.504;2023-07-13T00:32:25;18.73;75.47
71177;DHT22;58877;51.992;4.504;2023-07-13T00:34:56;18.77;75.30
71177;DHT22;58877;51.992;4.504;2023-07-13T00:37:26;18.76;75.18
71177;DHT22;58877;51.992;4.504;2023-07-13T00:39:57;18.80;75.03
71177;DHT22;58877;51.992;4.504;2023-07-13T00:42:24;18.85;75.17
71177;DHT22;58877;51.992;4.504;2023-07-13T00:45:07;18.83;74.79
71177;DHT22;58877;51.992;4.504;2023-07-13T00:47:56;18.80;74.99
71177;DHT22;58877;51.992;4.504;2023-07-13T00:50:23;18.68;75.24
71177;DHT22;58877;51.992;4.504;2023-07-13T00:52:53;18.55;75.71
71177;DHT22;58877;51.992;4.504;2023-07-13T00:55:27;18.55;76.02
71177;DHT22;58877;51.992;4.504;2023-07-13T00:57:56;18.56;76.10
71177;DHT22;58877;51.992;4.504;2023-07-13T01:00:23;18.45;76.71
71177;DHT22;58877;51.992;4.504;2023-07-13T01:02:55;18.39;76.94
71177;DHT22;58877;51.992;4.504;2023-07-13T01:05:23;18.38;77.10
71177;DHT22;58877;51.992;4.504;2023-07-13T01:07:51;18.29;77.26
71177;DHT22;58877;51.992;4.504;2023-07-13T01:10:22;18.27;77.36
71177;DHT22;58877;51.992;4.504;2023-07-13T01:12:56;18.25;77.23
71177;DHT22;58877;51.992;4.504;2023-07-13T01:15:37;18.12;77.43
71177;DHT22;58877;51.992;4.504;2023-07-13T01:18:08;18.04;77.14
71177;DHT22;58877;51.992;4.504;2023-07-13T01:20:38;18.07;77.12
71177;DHT22;58877;51.992;4.504;2023-07-13T01:23:10;18.02;76.62
71177;DHT22;58877;51.992;4.504;2023-07-13T01:25:37;17.98;76.25
71177;DHT22;58877;51.992;4.504;2023-07-13T01:28:06;18.00;76.34
71177;DHT22;58877;51.992;4.504;2023-07-13T01:30:32;18.04;76.24
71177;DHT22;58877;51.992;4.504;2023-07-13T01:33:01;18.04;76.13
71177;DHT22;58877;51.992;4.504;2023-07-13T01:35:27;18.02;76.13
71177;DHT22;58877;51.992;4.504;2023-07-13T01:37:56;18.02;76.27
71177;DHT22;58877;51.992;4.504;2023-07-13T01:40:23;17.95;76.08
71177;DHT22;58877;51.992;4.504;2023-07-13T01:42:48;17.91;75.86
71177;DHT22;58877;51.992;4.504;2023-07-13T01:45:15;17.78;75.52
71177;DHT22;58877;51.992;4.504;2023-07-13T01:47:50;17.74;75.58
71177;DHT22;58877;51.992;4.504;2023-07-13T01:50:25;17.75;74.93
71177;DHT22;58877;51.992;4.504;2023-07-13T01:52:54;17.70;74.98
71177;DHT22;58877;51.992;4.504;2023-07-13T01:55:21;17.67;74.80
71177;DHT22;58877;51.992;4.504;2023-07-13T01:57:52;17.69;74.77
71177;DHT22;58877;51.992;4.504;2023-07-13T02:00:21;17.73;74.64
71177;DHT22;58877;51.992;4.504;2023-07-13T02:02:51;17.71;74.67
71177;DHT22;58877;51.992;4.504;2023-07-13T02:05:17;17.75;74.44
71177;DHT22;58877;51.992;4.504;2023-07-13T02:07:44;17.77;74.39
71177;DHT22;58877;51.992;4.504;2023-07-13T02:10:10;17.81;74.14
71177;DHT22;58877;51.992;4.504;2023-07-13T02:12:40;17.84;74.02
71177;DHT22;58877;51.992;4.504;2023-07-13T02:15:06;17.80;74.33
71177;DHT22;58877;51.992;4.504;2023-07-13T02:17:34;17.83;74.58
71177;DHT22;58877;51.992;4.504;2023-07-13T02:20:04;17.85;74.64
71177;DHT22;58877;51.992;4.504;2023-07-13T02:22:30;17.90;74.85
71177;DHT22;58877;51.992;4.504;2023-07-13T02:24:56;17.90;74.90
71177;DHT22;58877;51.992;4.504;2023-07-13T02:27:23;17.90;75.16
71177;DHT22;58877;51.992;4.504;2023-07-13T02:29:49;18.01;75.31
71177;DHT22;58877;51.992;4.504;2023-07-13T02:32:17;18.05;75.27
71177;DHT22;58877;51.992;4.504;2023-07-13T02:34:43;18.00;75.65
71177;DHT22;58877;51.992;4.504;2023-07-13T02:37:09;18.00;76.11
71177;DHT22;58877;51.992;4.504;2023-07-13T02:39:35;18.00;76.52
71177;DHT22;58877;51.992;4.504;2023-07-13T02:42:01;17.93;76.91
71177;DHT22;58877;51.992;4.504;2023-07-13T02:44:27;17.93;77.17
71177;DHT22;58877;51.992;4.504;2023-07-13T02:46:53;17.91;77.54
71177;DHT22;58877;51.992;4.504;2023-07-13T02:49:19;17.93;78.01
71177;DHT22;58877;51.992;4.504;2023-07-13T02:51:45;17.97;78.18
71177;DHT22;58877;51.992;4.504;2023-07-13T02:54:11;17.95;78.38
71177;DHT22;58877;51.992;4.504;2023-07-13T02:56:39;17.93;79.01
71177;DHT22;58877;51.992;4.504;2023-07-13T02:59:09;17.90;79.36
71177;DHT22;58877;51.992;4.504;2023-07-13T03:01:36;17.93;79.71
71177;DHT22;58877;51.992;4.504;2023-07-13T03:04:02;17.94;79.72
71177;DHT22;58877;51.992;4.504;2023-07-13T03:06:33;17.93;80.08
71177;DHT22;58877;51.992;4.504;2023-07-13T03:08:59;17.93;80.15
71177;DHT22;58877;51.992;4.504;2023-07-13T03:11:26;17.81;80.92
71177;DHT22;58877;51.992;4.504;2023-07-13T03:13:52;17.80;81.19
71177;DHT22;58877;51.992;4.504;2023-07-13T03:16:19;17.77;81.55
71177;DHT22;58877;51.992;4.504;2023-07-13T03:18:46;17.74;81.87
71177;DHT22;58877;51.992;4.504;2023-07-13T03:21:12;17.71;82.01
71177;DHT22;58877;51.992;4.504;2023-07-13T03:23:41;17.70;82.21
71177;DHT22;58877;51.992;4.504;2023-07-13T03:26:14;17.73;82.35
71177;DHT22;58877;51.992;4.504;2023-07-13T03:28:40;17.75;82.23
71177;DHT22;58877;51.992;4.504;2023-07-13T03:31:15;17.77;82.29
71177;DHT22;58877;51.992;4.504;2023-07-13T03:33:42;17.83;82.26
71177;DHT22;58877;51.992;4.504;2023-07-13T03:36:13;17.83;82.34
71177;DHT22;58877;51.992;4.504;2023-07-13T03:38:53;17.87;82.21
71177;DHT22;58877;51.992;4.504;2023-07-13T03:41:21;17.91;82.00
71177;DHT22;58877;51.992;4.504;2023-07-13T03:43:49;17.85;82.06
71177;DHT22;58877;51.992;4.504;2023-07-13T03:46:15;17.78;82.32
71177;DHT22;58877;51.992;4.504;2023-07-13T03:48:45;17.81;82.44
71177;DHT22;58877;51.992;4.504;2023-07-13T03:51:13;17.84;82.38
71177;DHT22;58877;51.992;4.504;2023-07-13T03:53:44;17.80;82.50
71177;DHT22;58877;51.992;4.504;2023-07-13T03:56:11;17.85;82.46
71177;DHT22;58877;51.992;4.504;2023-07-13T03:58:42;17.93;82.18
71177;DHT22;58877;51.992;4.504;2023-07-13T04:01:10;18.00;81.97
71177;DHT22;58877;51.992;4.504;2023-07-13T04:03:40;18.00;81.89
71177;DHT22;58877;51.992;4.504;2023-07-13T04:06:25;17.91;81.96
71177;DHT22;58877;51.992;4.504;2023-07-13T04:08:57;17.94;82.00
71177;DHT22;58877;51.992;4.504;2023-07-13T04:11:30;17.91;82.10
71177;DHT22;58877;51.992;4.504;2023-07-13T04:13:57;17.88;82.14
71177;DHT22;58877;51.992;4.504;2023-07-13T04:16:24;17.91;82.13
71177;DHT22;58877;51.992;4.504;2023-07-13T04:18:51;18.02;82.00
71177;DHT22;58877;51.992;4.504;2023-07-13T04:21:21;18.12;81.53
71177;DHT22;58877;51.992;4.504;2023-07-13T04:23:48;18.22;81.41
71177;DHT22;58877;51.992;4.504;2023-07-13T04:26:20;18.31;80.94
71177;DHT22;58877;51.992;4.504;2023-07-13T04:28:47;18.42;80.46
71177;DHT22;58877;51.992;4.504;2023-07-13T04:31:17;18.44;79.89
71177;DHT22;58877;51.992;4.504;2023-07-13T04:33:43;18.37;80.33
71177;DHT22;58877;51.992;4.504;2023-07-13T04:36:09;18.41;80.17
71177;DHT22;58877;51.992;4.504;2023-07-13T04:38:38;18.45;79.81
71177;DHT22;58877;51.992;4.504;2023-07-13T04:41:06;18.52;79.49
71177;DHT22;58877;51.992;4.504;2023-07-13T04:43:33;18.63;79.14
71177;DHT22;58877;51.992;4.504;2023-07-13T04:46:09;18.65;78.91
71177;DHT22;58877;51.992;4.504;2023-07-13T04:48:35;18.65;78.49
71177;DHT22;58877;51.992;4.504;2023-07-13T04:51:01;18.70;78.48
71177;DHT22;58877;51.992;4.504;2023-07-13T04:53:28;18.85;78.12
71177;DHT22;58877;51.992;4.504;2023-07-13T04:55:55;18.92;77.58
71177;DHT22;58877;51.992;4.504;2023-07-13T04:58:22;18.90;77.08
71177;DHT22;58877;51.992;4.504;2023-07-13T05:00:49;19.03;76.92
71177;DHT22;58877;51.992;4.504;2023-07-13T05:03:15;19.09;76.10
71177;DHT22;58877;51.992;4.504;2023-07-13T05:05:41;19.19;76.23
71177;DHT22;58877;51.992;4.504;2023-07-13T05:08:07;19.22;75.89
71177;DHT22;58877;51.992;4.504;2023-07-13T05:10:34;19.28;75.10
71177;DHT22;58877;51.992;4.504;2023-07-13T05:13:00;19.26;74.89
71177;DHT22;58877;51.992;4.504;2023-07-13T05:15:26;19.33;74.66
71177;DHT22;58877;51.992;4.504;2023-07-13T05:17:53;19.24;74.30
71177;DHT22;58877;51.992;4.504;2023-07-13T05:20:19;19.17;74.38
71177;DHT22;58877;51.992;4.504;2023-07-13T05:22:45;19.22;74.30
71177;DHT22;58877;51.992;4.504;2023-07-13T05:25:14;19.16;74.04
71177;DHT22;58877;51.992;4.504;2023-07-13T05:27:40;19.23;74.00
71177;DHT22;58877;51.992;4.504;2023-07-13T05:30:06;19.26;74.04
71177;DHT22;58877;51.992;4.504;2023-07-13T05:32:33;19.27;73.81
71177;DHT22;58877;51.992;4.504;2023-07-13T05:34:59;19.14;73.93
71177;DHT22;58877;51.992;4.504;2023-07-13T05:37:25;19.30;73.55
71177;DHT22;58877;51.992;4.504;2023-07-13T05:39:51;19.19;73.46
71177;DHT22;58877;51.992;4.504;2023-07-13T05:42:16;19.16;73.77
71177;DHT22;58877;51.992;4.504;2023-07-13T05:44:42;19.28;73.44
71177;DHT22;58877;51.992;4.504;2023-07-13T05:47:08;19.34;73.64
71177;DHT22;58877;51.992;4.504;2023-07-13T05:49:34;19.30;73.30
71177;DHT22;58877;51.992;4.504;2023-07-13T05:51:59;19.44;73.46
71177;DHT22;58877;51.992;4.504;2023-07-13T05:54:29;19.46;73.01
71177;DHT22;58877;51.992;4.504;2023-07-13T05:56:58;19.50;72.70
71177;DHT22;58877;51.992;4.504;2023-07-13T05:59:27;19.54;73.10
71177;DHT22;58877;51.992;4.504;2023-07-13T06:01:53;19.51;73.16
71177;DHT22;58877;51.992;4.504;2023-07-13T06:04:19;19.53;74.46
71177;DHT22;58877;51.992;4.504;2023-07-13T06:06:45;19.61;74.57
71177;DHT22;58877;51.992;4.504;2023-07-13T06:09:11;19.61;74.16
71177;DHT22;58877;51.992;4.504;2023-07-13T06:11:37;19.57;74.04
71177;DHT22;58877;51.992;4.504;2023-07-13T06:14:02;19.58;73.79
71177;DHT22;58877;51.992;4.504;2023-07-13T06:16:29;19.61;73.69
71177;DHT22;58877;51.992;4.504;2023-07-13T06:18:55;19.63;73.28
71177;DHT22;58877;51.992;4.504;2023-07-13T06:21:22;19.70;73.59
71177;DHT22;58877;51.992;4.504;2023-07-13T06:23:52;19.78;72.43
71177;DHT22;58877;51.992;4.504;2023-07-13T06:26:22;19.84;72.31
71177;DHT22;58877;51.992;4.504;2023-07-13T06:28:50;19.99;72.27
71177;DHT22;58877;51.992;4.504;2023-07-13T06:31:16;20.21;71.80
71177;DHT22;58877;51.992;4.504;2023-07-13T06:33:42;20.38;71.35
71177;DHT22;58877;51.992;4.504;2023-07-13T06:36:09;20.50;70.99
71177;DHT22;58877;51.992;4.504;2023-07-13T06:38:35;20.65;70.24
71177;DHT22;58877;51.992;4.504;2023-07-13T06:41:02;20.57;69.21
71177;DHT22;58877;51.992;4.504;2023-07-13T06:43:28;20.48;69.30
71177;DHT22;58877;51.992;4.504;2023-07-13T06:45:55;19.98;68.68
71177;DHT22;58877;51.992;4.504;2023-07-13T06:48:22;19.78;69.18
71177;DHT22;58877;51.992;4.504;2023-07-13T06:50:49;19.87;69.57
71177;DHT22;58877;51.992;4.504;2023-07-13T06:53:17;20.04;69.49
71177;DHT22;58877;51.992;4.504;2023-07-13T06:55:44;20.22;68.53
71177;DHT22;58877;51.992;4.504;2023-07-13T06:58:10;20.22;68.47
71177;DHT22;58877;51.992;4.504;2023-07-13T07:00:36;19.94;69.04
71177;DHT22;58877;51.992;4.504;2023-07-13T07:03:02;19.91;68.91
71177;DHT22;58877;51.992;4.504;2023-07-13T07:05:28;20.14;68.02
71177;DHT22;58877;51.992;4.504;2023-07-13T07:07:55;20.29;68.09
71177;DHT22;58877;51.992;4.504;2023-07-13T07:10:21;20.55;68.26
71177;DHT22;58877;51.992;4.504;2023-07-13T07:12:50;20.38;67.86
71177;DHT22;58877;51.992;4.504;2023-07-13T07:15:17;20.04;68.30
71177;DHT22;58877;51.992;4.504;2023-07-13T07:17:43;20.21;68.56
71177;DHT22;58877;51.992;4.504;2023-07-13T07:20:10;19.71;68.46
71177;DHT22;58877;51.992;4.504;2023-07-13T07:22:36;19.65;68.89
71177;DHT22;58877;51.992;4.504;2023-07-13T07:25:02;19.51;69.83
71177;DHT22;58877;51.992;4.504;2023-07-13T07:27:28;19.74;69.88
71177;DHT22;58877;51.992;4.504;2023-07-13T07:29:54;19.95;68.26
71177;DHT22;58877;51.992;4.504;2023-07-13T07:32:20;19.98;68.64
71177;DHT22;58877;51.992;4.504;2023-07-13T07:34:46;20.01;67.97
71177;DHT22;58877;51.992;4.504;2023-07-13T07:37:14;20.35;67.71
71177;DHT22;58877;51.992;4.504;2023-07-13T07:39:40;20.79;66.35
71177;DHT22;58877;51.992;4.504;2023-07-13T07:42:07;20.43;67.03
71177;DHT22;58877;51.992;4.504;2023-07-13T07:44:33;20.25;67.52
71177;DHT22;58877;51.992;4.504;2023-07-13T07:46:59;19.98;68.21
71177;DHT22;58877;51.992;4.504;2023-07-13T07:52:19;19.67;70.15
71177;DHT22;58877;51.992;4.504;2023-07-13T07:55:09;19.67;69.69
71177;DHT22;58877;51.992;4.504;2023-07-13T07:57:48;19.87;69.07
71177;DHT22;58877;51.992;4.504;2023-07-13T08:00:20;19.89;69.16
71177;DHT22;58877;51.992;4.504;2023-07-13T08:02:59;19.77;68.50
71177;DHT22;58877;51.992;4.504;2023-07-13T08:05:54;19.54;68.11
71177;DHT22;58877;51.992;4.504;2023-07-13T08:08:33;19.61;68.38
71177;DHT22;58877;51.992;4.504;2023-07-13T08:11:12;20.24;67.34
71177;DHT22;58877;51.992;4.504;2023-07-13T08:13:47;20.68;65.33
71177;DHT22;58877;51.992;4.504;2023-07-13T08:16:29;21.06;63.95
71177;DHT22;58877;51.992;4.504;2023-07-13T08:19:10;21.22;63.35
71177;DHT22;58877;51.992;4.504;2023-07-13T08:21:44;21.30;63.25
71177;DHT22;58877;51.992;4.504;2023-07-13T08:24:13;21.03;63.44
71177;DHT22;58877;51.992;4.504;2023-07-13T08:26:51;21.02;65.55
71177;DHT22;58877;51.992;4.504;2023-07-13T08:29:32;21.08;65.67
71177;DHT22;58877;51.992;4.504;2023-07-13T08:32:17;21.16;65.67
71177;DHT22;58877;51.992;4.504;2023-07-13T08:34:56;21.00;65.75
71177;DHT22;58877;51.992;4.504;2023-07-13T08:37:36;20.59;66.60
71177;DHT22;58877;51.992;4.504;2023-07-13T08:40:02;20.11;67.98
71177;DHT22;58877;51.992;4.504;2023-07-13T08:42:57;19.98;68.87
71177;DHT22;58877;51.992;4.504;2023-07-13T08:45:30;19.97;69.27
71177;DHT22;58877;51.992;4.504;2023-07-13T08:48:16;19.85;67.17
71177;DHT22;58877;51.992;4.504;2023-07-13T08:53:49;19.82;66.61
71177;DHT22;58877;51.992;4.504;2023-07-13T08:56:23;19.95;65.87
71177;DHT22;58877;51.992;4.504;2023-07-13T08:58:56;20.49;63.92
71177;DHT22;58877;51.992;4.504;2023-07-13T09:12:39;21.35;62.19
71177;DHT22;58877;51.992;4.504;2023-07-13T09:15:46;21.20;64.34
71177;DHT22;58877;51.992;4.504;2023-07-13T09:18:37;21.28;64.90
71177;DHT22;58877;51.992;4.504;2023-07-13T09:21:17;21.04;65.80
71177;DHT22;58877;51.992;4.504;2023-07-13T09:23:44;21.23;65.57
71177;DHT22;58877;51.992;4.504;2023-07-13T09:26:18;21.14;65.49
71177;DHT22;58877;51.992;4.504;2023-07-13T09:28:49;21.00;63.46
71177;DHT22;58877;51.992;4.504;2023-07-13T09:31:33;20.77;65.06
71177;DHT22;58877;51.992;4.504;2023-07-13T09:34:00;20.63;68.95
71177;DHT22;58877;51.992;4.504;2023-07-13T09:36:31;19.95;71.02
71177;DHT22;58877;51.992;4.504;2023-07-13T09:44:27;19.38;74.04
71177;DHT22;58877;51.992;4.504;2023-07-13T09:46:56;19.34;73.70
71177;DHT22;58877;51.992;4.504;2023-07-13T09:49:33;19.54;73.34
71177;DHT22;58877;51.992;4.504;2023-07-13T09:52:15;19.98;73.21
71177;DHT22;58877;51.992;4.504;2023-07-13T09:54:49;20.32;71.66
71177;DHT22;58877;51.992;4.504;2023-07-13T09:57:27;20.50;71.18
71177;DHT22;58877;51.992;4.504;2023-07-13T09:59:56;20.84;69.46
71177;DHT22;58877;51.992;4.504;2023-07-13T10:02:35;21.02;69.01
71177;DHT22;58877;51.992;4.504;2023-07-13T10:05:13;21.28;67.50
71177;DHT22;58877;51.992;4.504;2023-07-13T10:07:43;21.20;67.77
71177;DHT22;58877;51.992;4.504;2023-07-13T10:10:17;21.44;65.89
71177;DHT22;58877;51.992;4.504;2023-07-13T10:12:47;21.14;66.67
71177;DHT22;58877;51.992;4.504;2023-07-13T10:15:17;21.00;66.42
71177;DHT22;58877;51.992;4.504;2023-07-13T10:17:44;21.30;66.28
71177;DHT22;58877;51.992;4.504;2023-07-13T10:20:10;21.62;65.07
71177;DHT22;58877;51.992;4.504;2023-07-13T10:23:01;21.95;64.55
71177;DHT22;58877;51.992;4.504;2023-07-13T10:25:32;21.92;63.78
71177;DHT22;58877;51.992;4.504;2023-07-13T10:28:09;21.37;64.60
71177;DHT22;58877;51.992;4.504;2023-07-13T10:30:41;21.22;64.82
71177;DHT22;58877;51.992;4.504;2023-07-13T10:33:12;20.76;66.28
71177;DHT22;58877;51.992;4.504;2023-07-13T10:35:42;20.38;65.67
71177;DHT22;58877;51.992;4.504;2023-07-13T10:38:15;20.60;64.89
71177;DHT22;58877;51.992;4.504;2023-07-13T10:41:01;20.83;62.70
71177;DHT22;58877;51.992;4.504;2023-07-13T10:43:54;21.33;61.19
71177;DHT22;58877;51.992;4.504;2023-07-13T10:46:26;21.55;61.15
71177;DHT22;58877;51.992;4.504;2023-07-13T10:48:59;21.71;58.47
71177;DHT22;58877;51.992;4.504;2023-07-13T10:51:28;22.23;60.07
71177;DHT22;58877;51.992;4.504;2023-07-13T10:54:19;22.09;58.78
71177;DHT22;58877;51.992;4.504;2023-07-13T10:56:53;21.51;59.36
71177;DHT22;58877;51.992;4.504;2023-07-13T10:59:33;21.43;60.89
71177;DHT22;58877;51.992;4.504;2023-07-13T11:02:26;21.48;58.28
71177;DHT22;58877;51.992;4.504;2023-07-13T11:04:54;21.28;59.83
71177;DHT22;58877;51.992;4.504;2023-07-13T11:09:52;21.37;59.61
71177;DHT22;58877;51.992;4.504;2023-07-13T11:12:51;21.26;60.42
71177;DHT22;58877;51.992;4.504;2023-07-13T11:15:54;21.44;57.32
71177;DHT22;58877;51.992;4.504;2023-07-13T11:18:24;21.38;56.32
71177;DHT22;58877;51.992;4.504;2023-07-13T11:20:51;21.64;57.10
71177;DHT22;58877;51.992;4.504;2023-07-13T11:23:20;21.43;56.86
71177;DHT22;58877;51.992;4.504;2023-07-13T11:25:54;21.33;56.75
71177;DHT22;58877;51.992;4.504;2023-07-13T11:28:24;20.94;59.00
71177;DHT22;58877;51.992;4.504;2023-07-13T11:33:30;21.23;56.97
71177;DHT22;58877;51.992;4.504;2023-07-13T11:36:15;21.50;58.14
71177;DHT22;58877;51.992;4.504;2023-07-13T11:38:57;21.84;56.76
71177;DHT22;58877;51.992;4.504;2023-07-13T11:41:43;21.85;57.22
71177;DHT22;58877;51.992;4.504;2023-07-13T11:44:16;21.75;58.09
71177;DHT22;58877;51.992;4.504;2023-07-13T11:46:51;21.48;53.46
71177;DHT22;58877;51.992;4.504;2023-07-13T11:49:20;21.41;55.92
71177;DHT22;58877;51.992;4.504;2023-07-13T11:51:46;21.71;56.27
71177;DHT22;58877;51.992;4.504;2023-07-13T11:54:32;21.55;55.74
71177;DHT22;58877;51.992;4.504;2023-07-13T11:57:03;21.69;54.98
71177;DHT22;58877;51.992;4.504;2023-07-13T11:59:38;21.97;53.09
71177;DHT22;58877;51.992;4.504;2023-07-13T12:02:17;21.88;53.59
71177;DHT22;58877;51.992;4.504;2023-07-13T12:04:48;21.98;53.94
71177;DHT22;58877;51.992;4.504;2023-07-13T12:07:18;21.97;54.58
71177;DHT22;58877;51.992;4.504;2023-07-13T12:09:45;22.08;55.14
71177;DHT22;58877;51.992;4.504;2023-07-13T12:12:20;22.26;55.45
71177;DHT22;58877;51.992;4.504;2023-07-13T12:14:46;22.11;55.37
71177;DHT22;58877;51.992;4.504;2023-07-13T12:17:19;21.82;56.43
71177;DHT22;58877;51.992;4.504;2023-07-13T12:19:48;21.82;55.94
71177;DHT22;58877;51.992;4.504;2023-07-13T12:22:18;21.41;56.46
71177;DHT22;58877;51.992;4.504;2023-07-13T12:24:46;21.99;55.76
71177;DHT22;58877;51.992;4.504;2023-07-13T12:27:22;21.97;55.94
71177;DHT22;58877;51.992;4.504;2023-07-13T12:29:56;22.09;55.96
71177;DHT22;58877;51.992;4.504;2023-07-13T12:32:25;22.31;55.14
71177;DHT22;58877;51.992;4.504;2023-07-13T12:35:01;21.95;54.30
71177;DHT22;58877;51.992;4.504;2023-07-13T12:37:29;21.98;53.47
71177;DHT22;58877;51.992;4.504;2023-07-13T12:39:59;21.82;53.98
71177;DHT22;58877;51.992;4.504;2023-07-13T12:42:26;21.79;54.53
71177;DHT22;58877;51.992;4.504;2023-07-13T12:44:57;21.94;54.96
71177;DHT22;58877;51.992;4.504;2023-07-13T12:47:24;21.84;54.43
71177;DHT22;58877;51.992;4.504;2023-07-13T12:49:58;22.28;53.15
71177;DHT22;58877;51.992;4.504;2023-07-13T12:52:30;22.26;54.44
71177;DHT22;58877;51.992;4.504;2023-07-13T12:55:03;22.05;52.60
71177;DHT22;58877;51.992;4.504;2023-07-13T12:57:29;21.81;52.15
71177;DHT22;58877;51.992;4.504;2023-07-13T12:59:55;21.91;53.71
71177;DHT22;58877;51.992;4.504;2023-07-13T13:02:33;22.06;53.63
71177;DHT22;58877;51.992;4.504;2023-07-13T13:05:01;21.77;54.43
71177;DHT22;58877;51.992;4.504;2023-07-13T13:07:29;21.77;52.85
71177;DHT22;58877;51.992;4.504;2023-07-13T13:09:55;21.89;52.97
71177;DHT22;58877;51.992;4.504;2023-07-13T13:12:22;21.81;54.67
71177;DHT22;58877;51.992;4.504;2023-07-13T13:14:51;21.74;54.67
71177;DHT22;58877;51.992;4.504;2023-07-13T13:17:29;21.84;53.51
71177;DHT22;58877;51.992;4.504;2023-07-13T13:19:56;21.79;53.45
71177;DHT22;58877;51.992;4.504;2023-07-13T13:22:22;21.54;53.37
71177;DHT22;58877;51.992;4.504;2023-07-13T13:24:49;21.87;52.63
71177;DHT22;58877;51.992;4.504;2023-07-13T13:27:20;21.84;52.97
71177;DHT22;58877;51.992;4.504;2023-07-13T13:29:49;22.12;53.01
71177;DHT22;58877;51.992;4.504;2023-07-13T13:32:17;22.01;52.82
71177;DHT22;58877;51.992;4.504;2023-07-13T13:34:44;21.91;52.84
71177;DHT22;58877;51.992;4.504;2023-07-13T13:37:21;22.33;53.14
71177;DHT22;58877;51.992;4.504;2023-07-13T13:39:49;22.32;52.20
71177;DHT22;58877;51.992;4.504;2023-07-13T13:42:15;22.36;51.26
71177;DHT22;58877;51.992;4.504;2023-07-13T13:44:41;22.45;52.00
71177;DHT22;58877;51.992;4.504;2023-07-13T13:47:27;22.67;51.08
71177;DHT22;58877;51.992;4.504;2023-07-13T13:49:55;22.50;52.03
71177;DHT22;58877;51.992;4.504;2023-07-13T13:52:20;22.64;52.87
71177;DHT22;58877;51.992;4.504;2023-07-13T13:54:46;22.53;53.78
71177;DHT22;58877;51.992;4.504;2023-07-13T13:57:12;22.41;52.81
71177;DHT22;58877;51.992;4.504;2023-07-13T13:59:38;22.01;54.43
71177;DHT22;58877;51.992;4.504;2023-07-13T14:02:27;22.18;55.13
71177;DHT22;58877;51.992;4.504;2023-07-13T14:04:57;22.97;54.41
71177;DHT22;58877;51.992;4.504;2023-07-13T14:07:25;23.21;53.14
71177;DHT22;58877;51.992;4.504;2023-07-13T14:10:00;22.82;53.86
71177;DHT22;58877;51.992;4.504;2023-07-13T14:12:28;23.17;53.00
71177;DHT22;58877;51.992;4.504;2023-07-13T14:14:58;23.33;52.65
71177;DHT22;58877;51.992;4.504;2023-07-13T14:17:26;22.94;53.13
71177;DHT22;58877;51.992;4.504;2023-07-13T14:19:53;23.23;53.66
71177;DHT22;58877;51.992;4.504;2023-07-13T14:22:26;23.13;53.49
71177;DHT22;58877;51.992;4.504;2023-07-13T14:24:55;23.16;53.89
71177;DHT22;58877;51.992;4.504;2023-07-13T14:27:23;23.30;54.20
71177;DHT22;58877;51.992;4.504;2023-07-13T14:29:49;23.50;52.02
71177;DHT22;58877;51.992;4.504;2023-07-13T14:32:16;23.27;52.93
71177;DHT22;58877;51.992;4.504;2023-07-13T14:34:42;23.33;53.87
71177;DHT22;58877;51.992;4.504;2023-07-13T14:37:15;23.30;53.15
71177;DHT22;58877;51.992;4.504;2023-07-13T14:39:46;22.69;54.48
71177;DHT22;58877;51.992;4.504;2023-07-13T14:42:14;22.77;54.54
71177;DHT22;58877;51.992;4.504;2023-07-13T14:44:40;23.34;53.57
71177;DHT22;58877;51.992;4.504;2023-07-13T14:47:08;23.95;53.04
71177;DHT22;58877;51.992;4.504;2023-07-13T14:49:41;23.43;53.49
71177;DHT22;58877;51.992;4.504;2023-07-13T14:52:17;22.94;54.10
71177;DHT22;58877;51.992;4.504;2023-07-13T14:54:44;22.84;54.80
71177;DHT22;58877;51.992;4.504;2023-07-13T14:57:14;23.23;55.72
71177;DHT22;58877;51.992;4.504;2023-07-13T14:59:40;23.68;53.68
71177;DHT22;58877;51.992;4.504;2023-07-13T15:02:17;23.71;53.33
71177;DHT22;58877;51.992;4.504;2023-07-13T15:04:47;23.95;53.00
71177;DHT22;58877;51.992;4.504;2023-07-13T15:07:42;23.86;54.77
71177;DHT22;58877;51.992;4.504;2023-07-13T15:10:31;24.66;51.70
71177;DHT22;58877;51.992;4.504;2023-07-13T15:13:12;24.37;52.25
71177;DHT22;58877;51.992;4.504;2023-07-13T15:15:43;24.59;51.80
71177;DHT22;58877;51.992;4.504;2023-07-13T15:18:21;24.63;50.68
71177;DHT22;58877;51.992;4.504;2023-07-13T15:20:48;24.25;51.40
71177;DHT22;58877;51.992;4.504;2023-07-13T15:23:22;23.98;52.24
71177;DHT22;58877;51.992;4.504;2023-07-13T15:25:49;23.89;53.48
71177;DHT22;58877;51.992;4.504;2023-07-13T15:28:26;23.94;51.97
71177;DHT22;58877;51.992;4.504;2023-07-13T15:34:24;24.42;51.25
71177;DHT22;58877;51.992;4.504;2023-07-13T15:37:08;24.01;51.11
71177;DHT22;58877;51.992;4.504;2023-07-13T15:39:54;24.16;51.83
71177;DHT22;58877;51.992;4.504;2023-07-13T15:42:28;24.25;50.47
71177;DHT22;58877;51.992;4.504;2023-07-13T15:45:03;24.52;50.29
71177;DHT22;58877;51.992;4.504;2023-07-13T15:47:40;24.96;49.45
71177;DHT22;58877;51.992;4.504;2023-07-13T15:50:24;24.15;51.07
71177;DHT22;58877;51.992;4.504;2023-07-13T15:53:22;23.91;51.46
71177;DHT22;58877;51.992;4.504;2023-07-13T15:55:57;24.09;51.02
71177;DHT22;58877;51.992;4.504;2023-07-13T15:59:23;24.15;51.52
71177;DHT22;58877;51.992;4.504;2023-07-13T16:02:00;23.72;53.47
71177;DHT22;58877;51.992;4.504;2023-07-13T16:04:28;24.06;52.40
71177;DHT22;58877;51.992;4.504;2023-07-13T16:10:14;23.62;52.98
71177;DHT22;58877;51.992;4.504;2023-07-13T16:12:46;23.27;53.82
71177;DHT22;58877;51.992;4.504;2023-07-13T16:15:27;23.62;53.43
71177;DHT22;58877;51.992;4.504;2023-07-13T16:17:57;23.64;53.97
71177;DHT22;58877;51.992;4.504;2023-07-13T16:20:36;24.05;52.36
71177;DHT22;58877;51.992;4.504;2023-07-13T16:23:19;23.88;53.00
71177;DHT22;58877;51.992;4.504;2023-07-13T16:25:49;23.00;54.77
71177;DHT22;58877;51.992;4.504;2023-07-13T16:28:26;22.97;55.76